createdAt,value
2022-08-25T00:00:48.507Z,6.00
2022-08-25T00:01:48.462Z,5.90
2022-08-25T00:02:56.123Z,6.30
2022-08-25T00:03:49.439Z,6.20
2022-08-25T00:04:53.691Z,6.60
2022-08-25T00:05:49.496Z,6.10
2022-08-25T00:06:48.418Z,6.30
2022-08-25T00:07:48.406Z,6.50
2022-08-25T00:08:48.407Z,6.60
2022-08-25T00:09:48.385Z,6.80
2022-08-25T00:11:02.960Z,6.70
2022-08-25T00:11:49.368Z,6.30
2022-08-25T00:12:48.402Z,6.50
2022-08-25T00:13:48.349Z,6.60
2022-08-25T00:14:48.359Z,6.70
2022-08-25T00:15:48.403Z,6.50
2022-08-25T00:16:48.345Z,6.60
2022-08-25T00:17:48.354Z,6.20
2022-08-25T00:18:48.336Z,6.70
2022-08-25T00:19:48.303Z,6.20
2022-08-25T00:20:49.203Z,6.40
2022-08-25T00:21:48.285Z,6.20
2022-08-25T00:22:48.293Z,6.70
2022-08-25T00:23:48.314Z,6.30
2022-08-25T00:24:48.299Z,6.30
2022-08-25T00:25:48.254Z,6.20
2022-08-25T00:26:48.241Z,6.50
2022-08-25T00:27:48.241Z,6.40
2022-08-25T00:28:48.221Z,7.00
2022-08-25T00:29:48.239Z,6.40
2022-08-25T00:30:48.307Z,6.70
2022-08-25T00:31:48.212Z,6.70
2022-08-25T00:32:54.991Z,6.60
2022-08-25T00:33:49.199Z,7.00
2022-08-25T00:34:48.208Z,6.80
2022-08-25T00:35:48.173Z,6.70
2022-08-25T00:36:48.175Z,6.40
2022-08-25T00:37:48.211Z,6.70
2022-08-25T00:38:48.146Z,6.70
2022-08-25T00:39:48.172Z,7.00
2022-08-25T00:40:48.156Z,6.90
2022-08-25T00:41:48.125Z,6.80
2022-08-25T00:42:48.109Z,6.70
2022-08-25T00:43:48.113Z,7.50
2022-08-25T00:44:48.093Z,6.90
2022-08-25T00:45:48.080Z,7.00
2022-08-25T00:46:48.088Z,7.20
2022-08-25T00:47:48.094Z,7.40
2022-08-25T00:48:48.067Z,7.40
2022-08-25T00:49:48.063Z,7.70
2022-08-25T00:50:48.044Z,7.10
2022-08-25T00:51:48.036Z,7.50
2022-08-25T00:52:48.047Z,7.70
2022-08-25T00:53:48.018Z,7.20
2022-08-25T00:54:48.007Z,7.50
2022-08-25T00:55:47.995Z,7.00
2022-08-25T00:56:47.987Z,7.40
2022-08-25T00:57:48.044Z,7.70
2022-08-25T00:58:47.975Z,7.50
2022-08-25T00:59:48.002Z,7.30
2022-08-25T01:00:47.951Z,7.50
2022-08-25T01:01:47.992Z,7.60
2022-08-25T01:02:48.022Z,7.70
2022-08-25T01:03:47.933Z,7.80
2022-08-25T01:04:47.932Z,7.50
2022-08-25T01:05:47.943Z,7.70
2022-08-25T01:06:47.907Z,7.80
2022-08-25T01:07:47.888Z,7.80
2022-08-25T01:08:47.888Z,7.40
2022-08-25T01:09:47.897Z,7.60
2022-08-25T01:10:47.870Z,7.90
2022-08-25T01:11:47.885Z,8.30
2022-08-25T01:12:47.850Z,8.20
2022-08-25T01:13:47.854Z,7.90
2022-08-25T01:14:47.859Z,8.10
2022-08-25T01:15:47.967Z,7.80
2022-08-25T01:16:51.153Z,8.00
2022-08-25T01:17:48.842Z,8.60
2022-08-25T01:18:47.810Z,8.60
2022-08-25T01:19:47.805Z,8.30
2022-08-25T01:20:47.792Z,8.40
2022-08-25T01:21:47.815Z,8.70
2022-08-25T01:22:50.910Z,9.10
2022-08-25T01:23:48.770Z,8.40
2022-08-25T01:24:47.752Z,8.50
2022-08-25T01:25:47.762Z,8.30
2022-08-25T01:26:47.737Z,8.10
2022-08-25T01:27:47.773Z,8.60
2022-08-25T01:28:47.709Z,8.60
2022-08-25T01:29:47.721Z,8.70
2022-08-25T01:30:47.749Z,8.90
2022-08-25T01:31:47.700Z,8.70
2022-08-25T01:32:47.710Z,8.90
2022-08-25T01:33:47.723Z,8.70
2022-08-25T01:34:47.683Z,8.80
2022-08-25T01:35:47.671Z,9.10
2022-08-25T01:36:47.656Z,8.50
2022-08-25T01:37:47.642Z,9.50
2022-08-25T01:38:47.762Z,8.90
2022-08-25T01:39:47.711Z,9.30
2022-08-25T01:40:47.666Z,9.80
2022-08-25T01:41:47.609Z,8.80
2022-08-25T01:42:47.623Z,9.20
2022-08-25T01:43:47.969Z,8.80
2022-08-25T01:44:47.616Z,9.30
2022-08-25T01:45:47.633Z,9.40
2022-08-25T01:46:47.587Z,8.40
2022-08-25T01:47:47.569Z,9.00
2022-08-25T01:48:47.550Z,9.00
2022-08-25T01:49:47.575Z,8.70
2022-08-25T01:50:47.709Z,8.70
2022-08-25T01:51:47.530Z,9.10
2022-08-25T01:52:47.551Z,8.60
2022-08-25T01:53:47.528Z,9.00
2022-08-25T01:54:47.508Z,9.00
2022-08-25T01:55:47.498Z,8.60
2022-08-25T01:56:47.486Z,9.10
2022-08-25T01:57:47.505Z,8.60
2022-08-25T01:58:47.527Z,9.20
2022-08-25T01:59:47.465Z,8.60
2022-08-25T02:00:47.448Z,9.20
2022-08-25T02:01:47.472Z,9.00
2022-08-25T02:02:47.496Z,9.00
2022-08-25T02:03:48.089Z,9.20
2022-08-25T02:04:47.427Z,9.40
2022-08-25T02:05:47.950Z,9.00
2022-08-25T02:06:47.402Z,9.40
2022-08-25T02:07:47.388Z,8.70
2022-08-25T02:08:47.500Z,8.10
2022-08-25T02:09:47.401Z,8.90
2022-08-25T02:10:47.377Z,9.20
2022-08-25T02:11:47.384Z,9.00
2022-08-25T02:12:47.353Z,9.10
2022-08-25T02:13:47.350Z,9.20
2022-08-25T02:14:47.413Z,8.60
2022-08-25T02:15:47.339Z,9.10
2022-08-25T02:16:47.507Z,9.20
2022-08-25T02:17:47.303Z,9.70
2022-08-25T02:18:47.289Z,9.20
2022-08-25T02:19:47.300Z,9.30
2022-08-25T02:20:47.301Z,9.40
2022-08-25T02:21:47.283Z,9.50
2022-08-25T02:22:53.095Z,9.90
2022-08-25T02:23:48.268Z,9.60
2022-08-25T02:24:47.256Z,10.20
2022-08-25T02:25:47.245Z,9.90
2022-08-25T02:26:47.264Z,9.70
2022-08-25T02:27:47.239Z,9.80
2022-08-25T02:28:47.254Z,10.20
2022-08-25T02:29:47.231Z,9.90
2022-08-25T02:30:47.249Z,9.30
2022-08-25T02:31:47.304Z,9.20
2022-08-25T02:32:47.235Z,9.70
2022-08-25T02:33:47.183Z,10.00
2022-08-25T02:34:47.183Z,10.70
2022-08-25T02:35:47.168Z,9.90
2022-08-25T02:36:47.149Z,9.90
2022-08-25T02:37:47.147Z,10.30
2022-08-25T02:38:47.152Z,10.10
2022-08-25T02:39:47.144Z,10.50
2022-08-25T02:40:47.133Z,10.70
2022-08-25T02:41:47.131Z,10.70
2022-08-25T02:42:47.177Z,10.20
2022-08-25T02:43:47.132Z,10.70
2022-08-25T02:44:47.107Z,10.40
2022-08-25T02:45:47.190Z,10.90
2022-08-25T02:46:47.094Z,10.90
2022-08-25T02:47:47.058Z,10.50
2022-08-25T02:48:47.049Z,10.30
2022-08-25T02:49:47.067Z,10.50
2022-08-25T02:50:47.044Z,10.60
2022-08-25T02:51:47.030Z,11.50
2022-08-25T02:52:47.003Z,10.40
2022-08-25T02:53:47.007Z,10.20
2022-08-25T02:54:46.993Z,11.00
2022-08-25T02:55:47.021Z,10.60
2022-08-25T02:56:46.985Z,11.00
2022-08-25T02:57:46.999Z,11.40
2022-08-25T02:58:46.967Z,11.00
2022-08-25T02:59:46.981Z,10.40
2022-08-25T03:00:46.965Z,11.40
2022-08-25T03:01:46.951Z,10.60
2022-08-25T03:02:46.929Z,11.00
2022-08-25T03:03:46.968Z,10.80
2022-08-25T03:04:46.923Z,10.40
2022-08-25T03:05:46.933Z,10.60
2022-08-25T03:06:46.897Z,10.30
2022-08-25T03:07:46.894Z,10.20
2022-08-25T03:08:46.888Z,9.80
2022-08-25T03:09:46.867Z,9.30
2022-08-25T03:10:47.450Z,9.00
2022-08-25T03:11:46.875Z,9.40
2022-08-25T03:12:46.848Z,9.60
2022-08-25T03:13:46.834Z,9.80
2022-08-25T03:14:46.839Z,9.90
2022-08-25T03:15:46.831Z,9.50
2022-08-25T03:16:47.038Z,10.20
2022-08-25T03:17:46.824Z,9.90
2022-08-25T03:18:46.796Z,10.80
2022-08-25T03:19:46.797Z,9.40
2022-08-25T03:20:46.768Z,9.20
2022-08-25T03:21:46.769Z,9.70
2022-08-25T03:22:46.789Z,9.60
2022-08-25T03:23:46.755Z,10.10
2022-08-25T03:24:46.747Z,9.20
2022-08-25T03:25:46.734Z,9.80
2022-08-25T03:26:46.760Z,9.80
2022-08-25T03:27:46.707Z,10.40
2022-08-25T03:28:46.723Z,10.70
2022-08-25T03:29:46.708Z,10.90
2022-08-25T03:30:46.678Z,10.50
2022-08-25T03:31:47.746Z,10.90
2022-08-25T03:32:46.675Z,10.80
2022-08-25T03:33:46.664Z,10.40
2022-08-25T03:34:46.752Z,10.80
2022-08-25T03:35:46.679Z,11.10
2022-08-25T03:36:46.678Z,9.80
2022-08-25T03:37:46.686Z,9.90
2022-08-25T03:38:46.653Z,9.90
2022-08-25T03:39:46.664Z,9.80
2022-08-25T03:40:46.603Z,10.20
2022-08-25T03:41:46.591Z,10.50
2022-08-25T03:42:46.576Z,10.00
2022-08-25T03:43:47.606Z,11.00
2022-08-25T03:44:46.585Z,10.70
2022-08-25T03:45:46.582Z,11.50
2022-08-25T03:46:46.549Z,11.20
2022-08-25T03:47:46.523Z,11.80
2022-08-25T03:48:46.538Z,11.70
2022-08-25T03:49:46.502Z,12.10
2022-08-25T03:50:50.547Z,11.30
2022-08-25T03:51:47.501Z,11.40
2022-08-25T03:52:46.493Z,11.70
2022-08-25T03:53:46.490Z,12.20
2022-08-25T03:54:46.507Z,12.00
2022-08-25T03:55:46.475Z,11.50
2022-08-25T03:56:46.480Z,11.30
2022-08-25T03:57:46.442Z,11.90
2022-08-25T03:58:46.434Z,12.10
2022-08-25T03:59:46.460Z,12.30
2022-08-25T04:00:46.464Z,11.90
2022-08-25T04:01:48.439Z,12.80
2022-08-25T04:02:48.200Z,13.00
2022-08-25T04:03:46.384Z,12.20
2022-08-25T04:04:46.383Z,12.40
2022-08-25T04:05:46.376Z,13.50
2022-08-25T04:06:46.374Z,13.00
2022-08-25T04:07:46.352Z,13.00
2022-08-25T04:08:46.382Z,13.40
2022-08-25T04:09:46.348Z,12.90
2022-08-25T04:10:46.331Z,13.20
2022-08-25T04:11:46.325Z,12.70
2022-08-25T04:12:46.311Z,13.00
2022-08-25T04:13:46.312Z,12.40
2022-08-25T04:14:46.323Z,12.40
2022-08-25T04:15:46.292Z,12.30
2022-08-25T04:16:46.353Z,12.30
2022-08-25T04:17:46.262Z,12.50
2022-08-25T04:18:46.323Z,12.90
2022-08-25T04:19:46.263Z,13.40
2022-08-25T04:20:46.998Z,12.20
2022-08-25T04:21:46.228Z,12.70
2022-08-25T04:22:46.240Z,12.40
2022-08-25T04:23:46.216Z,12.80
2022-08-25T04:24:46.194Z,12.50
2022-08-25T04:25:46.361Z,12.60
2022-08-25T04:26:46.196Z,13.00
2022-08-25T04:27:46.167Z,13.50
2022-08-25T04:28:46.181Z,13.40
2022-08-25T04:29:46.187Z,13.10
2022-08-25T04:30:50.253Z,13.30
2022-08-25T04:31:47.809Z,13.70
2022-08-25T04:32:46.130Z,14.10
2022-08-25T04:33:46.112Z,12.80
2022-08-25T04:34:46.116Z,13.50
2022-08-25T04:35:46.125Z,12.90
2022-08-25T04:36:46.095Z,13.20
2022-08-25T04:37:47.101Z,13.40
2022-08-25T04:38:46.077Z,13.90
2022-08-25T04:39:46.098Z,13.70
2022-08-25T04:40:46.047Z,13.90
2022-08-25T04:41:46.059Z,13.80
2022-08-25T04:42:47.258Z,13.20
2022-08-25T04:43:46.022Z,13.20
2022-08-25T04:44:46.016Z,13.30
2022-08-25T04:45:46.698Z,14.00
2022-08-25T04:46:46.009Z,13.10
2022-08-25T04:47:46.024Z,12.90
2022-08-25T04:48:46.000Z,13.20
2022-08-25T04:49:45.999Z,12.70
2022-08-25T04:50:46.023Z,12.90
2022-08-25T04:51:45.980Z,13.20
2022-08-25T04:52:45.955Z,12.80
2022-08-25T04:53:45.960Z,13.10
2022-08-25T04:54:45.935Z,12.60
2022-08-25T04:55:45.926Z,12.90
2022-08-25T04:56:45.919Z,13.20
2022-08-25T04:57:45.914Z,12.80
2022-08-25T04:58:45.904Z,13.00
2022-08-25T04:59:45.905Z,13.10
2022-08-25T05:00:45.943Z,12.90
2022-08-25T05:01:45.910Z,12.80
2022-08-25T05:02:45.865Z,13.00
2022-08-25T05:03:45.944Z,12.50
2022-08-25T05:04:45.916Z,12.40
2022-08-25T05:05:45.840Z,12.80
2022-08-25T05:06:45.856Z,12.90
2022-08-25T05:07:45.834Z,11.70
2022-08-25T05:08:46.280Z,12.60
2022-08-25T05:09:45.819Z,12.50
2022-08-25T05:10:45.828Z,11.80
2022-08-25T05:11:45.778Z,12.30
2022-08-25T05:12:45.796Z,11.90
2022-08-25T05:13:51.538Z,11.70
2022-08-25T05:14:46.753Z,12.20
2022-08-25T05:15:45.999Z,12.40
2022-08-25T05:16:45.771Z,12.10
2022-08-25T05:17:45.746Z,11.90
2022-08-25T05:18:45.739Z,12.20
2022-08-25T05:19:45.714Z,11.30
2022-08-25T05:20:45.731Z,12.00
2022-08-25T05:21:45.696Z,11.90
2022-08-25T05:22:45.716Z,11.50
2022-08-25T05:23:45.706Z,12.00
2022-08-25T05:24:45.678Z,12.60
2022-08-25T05:25:45.725Z,12.20
2022-08-25T05:26:45.663Z,11.40
2022-08-25T05:27:45.640Z,11.50
2022-08-25T05:28:45.637Z,10.90
2022-08-25T05:29:45.678Z,11.00
2022-08-25T05:30:45.655Z,11.30
2022-08-25T05:31:50.045Z,12.00
2022-08-25T05:32:45.607Z,11.20
2022-08-25T05:33:45.606Z,11.20
2022-08-25T05:34:45.595Z,10.90
2022-08-25T05:35:45.682Z,11.20
2022-08-25T05:36:45.593Z,10.80
2022-08-25T05:37:45.556Z,10.90
2022-08-25T05:38:45.565Z,11.10
2022-08-25T05:39:45.608Z,11.30
2022-08-25T05:40:45.532Z,10.90
2022-08-25T05:41:45.559Z,11.40
2022-08-25T05:42:45.524Z,11.00
2022-08-25T05:43:45.536Z,9.80
2022-08-25T05:44:45.503Z,10.00
2022-08-25T05:45:45.574Z,10.70
2022-08-25T05:46:45.501Z,10.00
2022-08-25T05:47:45.482Z,10.10
2022-08-25T05:48:45.471Z,9.90
2022-08-25T05:49:45.470Z,9.90
2022-08-25T05:50:45.442Z,9.80
2022-08-25T05:51:45.514Z,9.80
2022-08-25T05:52:54.690Z,9.70
2022-08-25T05:53:45.411Z,9.40
2022-08-25T05:54:45.460Z,9.90
2022-08-25T05:55:45.415Z,9.20
2022-08-25T05:56:45.437Z,9.90
2022-08-25T05:57:45.433Z,9.90
2022-08-25T05:58:45.406Z,10.50
2022-08-25T05:59:45.381Z,10.00
2022-08-25T06:00:45.430Z,9.20
2022-08-25T06:01:45.513Z,9.70
2022-08-25T06:02:45.351Z,9.60
2022-08-25T06:03:45.418Z,9.60
2022-08-25T06:04:45.327Z,9.60
2022-08-25T06:05:45.318Z,9.50
2022-08-25T06:06:45.322Z,9.80
2022-08-25T06:07:45.297Z,9.60
2022-08-25T06:08:45.290Z,9.10
2022-08-25T06:09:45.306Z,9.60
2022-08-25T06:10:45.285Z,9.50
2022-08-25T06:11:45.335Z,9.00
2022-08-25T06:12:45.291Z,9.20
2022-08-25T06:13:45.256Z,9.30
2022-08-25T06:14:45.243Z,9.20
2022-08-25T06:15:45.255Z,9.00
2022-08-25T06:16:45.265Z,9.70
2022-08-25T06:17:45.212Z,9.70
2022-08-25T06:18:45.226Z,8.90
2022-08-25T06:19:45.218Z,8.80
2022-08-25T06:20:45.243Z,9.30
2022-08-25T06:21:45.191Z,9.10
2022-08-25T06:22:45.198Z,9.00
2022-08-25T06:23:45.176Z,9.10
2022-08-25T06:24:45.208Z,8.90
2022-08-25T06:25:45.158Z,9.40
2022-08-25T06:26:45.171Z,8.80
2022-08-25T06:27:45.158Z,9.20
2022-08-25T06:28:45.135Z,8.60
2022-08-25T06:29:45.124Z,8.50
2022-08-25T06:30:45.715Z,8.40
2022-08-25T06:31:45.142Z,8.20
2022-08-25T06:32:45.116Z,8.60
2022-08-25T06:33:45.087Z,8.20
2022-08-25T06:34:45.097Z,8.20
2022-08-25T06:35:45.075Z,8.20
2022-08-25T06:36:45.071Z,8.20
2022-08-25T06:37:45.066Z,8.20
2022-08-25T06:38:45.074Z,8.30
2022-08-25T06:39:45.092Z,8.20
2022-08-25T06:40:45.047Z,8.20
2022-08-25T06:41:45.021Z,7.90
2022-08-25T06:42:45.031Z,7.70
2022-08-25T06:43:48.950Z,8.10
2022-08-25T06:44:46.020Z,8.20
2022-08-25T06:45:44.985Z,7.80
2022-08-25T06:46:45.009Z,7.80
2022-08-25T06:47:45.489Z,7.90
2022-08-25T06:48:45.024Z,7.80
2022-08-25T06:49:44.973Z,7.60
2022-08-25T06:50:44.957Z,7.80
2022-08-25T06:51:44.944Z,8.50
2022-08-25T06:52:44.931Z,7.40
2022-08-25T06:53:44.912Z,7.60
2022-08-25T06:54:44.914Z,7.50
2022-08-25T06:55:44.963Z,7.40
2022-08-25T06:56:44.939Z,7.50
2022-08-25T06:57:44.929Z,7.70
2022-08-25T06:58:44.867Z,7.80
2022-08-25T06:59:44.857Z,7.50
2022-08-25T07:00:44.899Z,7.80
2022-08-25T07:01:45.004Z,7.40
2022-08-25T07:02:44.865Z,7.50
2022-08-25T07:03:44.824Z,7.20
2022-08-25T07:04:44.837Z,7.40
2022-08-25T07:05:44.828Z,7.10
2022-08-25T07:06:44.825Z,7.40
2022-08-25T07:07:44.831Z,7.10
2022-08-25T07:08:44.799Z,7.30
2022-08-25T07:09:44.821Z,7.60
2022-08-25T07:10:47.978Z,7.10
2022-08-25T07:11:44.788Z,6.90
2022-08-25T07:12:44.767Z,6.90
2022-08-25T07:13:44.807Z,6.70
2022-08-25T07:14:58.075Z,6.50
2022-08-25T07:15:46.740Z,6.90
2022-08-25T07:16:49.163Z,7.20
2022-08-25T07:17:44.734Z,6.70
2022-08-25T07:18:44.713Z,7.50
2022-08-25T07:19:44.751Z,7.00
2022-08-25T07:20:44.695Z,7.10
2022-08-25T07:21:44.697Z,7.40
2022-08-25T07:22:44.693Z,6.90
2022-08-25T07:23:44.673Z,7.00
2022-08-25T07:24:44.683Z,7.30
2022-08-25T07:25:44.694Z,7.30
2022-08-25T07:26:44.667Z,7.50
2022-08-25T07:27:44.638Z,7.20
2022-08-25T07:28:47.254Z,6.80
2022-08-25T07:29:44.681Z,8.10
2022-08-25T07:30:44.617Z,7.50
2022-08-25T07:31:45.710Z,7.50
2022-08-25T07:32:44.617Z,7.60
2022-08-25T07:33:44.604Z,7.70
2022-08-25T07:34:44.598Z,7.90
2022-08-25T07:35:45.605Z,8.00
2022-08-25T07:36:44.587Z,7.80
2022-08-25T07:37:49.124Z,7.20
2022-08-25T07:38:45.633Z,7.60
2022-08-25T07:39:44.667Z,8.40
2022-08-25T07:40:44.530Z,7.20
2022-08-25T07:41:45.548Z,7.70
2022-08-25T07:42:44.520Z,7.30
2022-08-25T07:43:44.695Z,7.10
2022-08-25T07:44:45.272Z,7.40
2022-08-25T07:45:49.458Z,7.70
2022-08-25T07:46:45.714Z,8.10
2022-08-25T07:47:44.500Z,7.90
2022-08-25T07:48:44.964Z,8.30
2022-08-25T07:49:45.535Z,7.90
2022-08-25T07:50:44.456Z,8.10
2022-08-25T07:52:03.708Z,8.80
2022-08-25T07:52:45.451Z,8.10
2022-08-25T07:53:45.456Z,8.50
2022-08-25T07:54:44.460Z,7.50
2022-08-25T07:55:45.082Z,7.80
2022-08-25T07:56:44.421Z,7.50
2022-08-25T07:57:44.468Z,8.00
2022-08-25T07:58:44.394Z,8.10
2022-08-25T07:59:44.396Z,8.20
2022-08-25T08:00:44.400Z,8.40
2022-08-25T08:01:44.522Z,8.40
2022-08-25T08:02:44.398Z,8.40
2022-08-25T08:03:50.500Z,8.70
2022-08-25T08:04:45.365Z,9.00
2022-08-25T08:05:44.352Z,8.60
2022-08-25T08:06:44.373Z,7.80
2022-08-25T08:07:44.414Z,8.20
2022-08-25T08:08:44.366Z,8.40
2022-08-25T08:09:44.340Z,8.60
2022-08-25T08:11:05.414Z,8.20
2022-08-25T08:11:53.510Z,8.30
2022-08-25T08:12:45.303Z,8.00
2022-08-25T08:13:44.290Z,8.00
2022-08-25T08:14:44.834Z,7.90
2022-08-25T08:15:44.315Z,8.00
2022-08-25T08:16:44.280Z,8.60
2022-08-25T08:17:44.508Z,8.30
2022-08-25T08:18:44.245Z,8.60
2022-08-25T08:19:45.374Z,8.50
2022-08-25T08:20:44.244Z,8.60
2022-08-25T08:21:44.221Z,8.40
2022-08-25T08:22:44.262Z,8.50
2022-08-25T08:23:44.278Z,9.20
2022-08-25T08:24:54.767Z,8.80
2022-08-25T08:25:45.200Z,9.10
2022-08-25T08:26:58.180Z,9.40
2022-08-25T08:27:45.469Z,8.90
2022-08-25T08:28:44.269Z,9.10
2022-08-25T08:29:45.166Z,9.00
2022-08-25T08:30:53.014Z,8.60
2022-08-25T08:31:48.671Z,9.20
2022-08-25T08:33:08.810Z,9.10
2022-08-25T08:33:45.200Z,8.40
2022-08-25T08:34:44.315Z,8.30
2022-08-25T08:35:44.141Z,9.00
2022-08-25T08:36:45.274Z,9.60
2022-08-25T08:37:44.118Z,9.50
2022-08-25T08:38:44.111Z,9.20
2022-08-25T08:39:44.081Z,9.70
2022-08-25T08:40:44.095Z,8.90
2022-08-25T08:42:11.653Z,8.80
2022-08-25T08:42:46.740Z,8.80
2022-08-25T08:43:44.065Z,8.70
2022-08-25T08:44:44.050Z,9.40
2022-08-25T08:45:44.250Z,9.50
2022-08-25T08:46:44.116Z,9.50
2022-08-25T08:47:44.057Z,9.30
2022-08-25T08:48:44.177Z,9.60
2022-08-25T08:49:44.012Z,9.40
2022-08-25T08:50:44.011Z,9.00
2022-08-25T08:51:44.018Z,9.40
2022-08-25T08:52:43.998Z,8.70
2022-08-25T08:53:44.015Z,9.60
2022-08-25T08:54:43.963Z,9.80
2022-08-25T08:55:43.970Z,10.20
2022-08-25T08:56:48.004Z,9.40
2022-08-25T08:57:44.836Z,9.70
2022-08-25T08:58:43.936Z,10.10
2022-08-25T08:59:44.057Z,10.00
2022-08-25T09:00:46.766Z,9.60
2022-08-25T09:01:44.907Z,9.90
2022-08-25T09:02:51.902Z,10.50
2022-08-25T09:03:44.912Z,9.40
2022-08-25T09:04:43.876Z,9.60
2022-08-25T09:05:47.157Z,9.00
2022-08-25T09:06:44.274Z,9.10
2022-08-25T09:07:43.889Z,9.10
2022-08-25T09:08:44.574Z,9.80
2022-08-25T09:09:45.419Z,9.30
2022-08-25T09:10:43.915Z,9.00
2022-08-25T09:11:44.085Z,9.20
2022-08-25T09:12:48.190Z,8.90
2022-08-25T09:13:43.805Z,8.50
2022-08-25T09:14:43.788Z,9.10
2022-08-25T09:15:43.835Z,8.40
2022-08-25T09:16:43.814Z,8.80
2022-08-25T09:17:44.732Z,9.00
2022-08-25T09:18:50.876Z,8.80
2022-08-25T09:19:44.895Z,8.70
2022-08-25T09:20:43.746Z,7.90
2022-08-25T09:21:43.767Z,8.60
2022-08-25T09:22:43.754Z,8.90
2022-08-25T09:23:43.750Z,9.20
2022-08-25T09:24:43.719Z,8.60
2022-08-25T09:25:53.193Z,8.90
2022-08-25T09:26:44.709Z,8.80
2022-08-25T09:27:43.695Z,8.30
2022-08-25T09:28:43.735Z,8.70
2022-08-25T09:29:43.688Z,8.30
2022-08-25T09:30:43.855Z,8.60
2022-08-25T09:31:43.739Z,8.30
2022-08-25T09:32:47.447Z,8.20
2022-08-25T09:33:44.664Z,8.20
2022-08-25T09:34:43.646Z,8.20
2022-08-25T09:35:43.647Z,8.70
2022-08-25T09:36:43.657Z,8.00
2022-08-25T09:37:43.620Z,8.40
2022-08-25T09:38:43.706Z,8.70
2022-08-25T09:39:43.625Z,9.10
2022-08-25T09:40:43.585Z,8.50
2022-08-25T09:41:43.621Z,8.20
2022-08-25T09:42:43.585Z,8.30
2022-08-25T09:43:43.568Z,7.80
2022-08-25T09:44:43.626Z,8.10
2022-08-25T09:45:43.567Z,8.30
2022-08-25T09:46:43.636Z,8.50
2022-08-25T09:47:43.591Z,7.80
2022-08-25T09:48:43.546Z,7.70
2022-08-25T09:49:43.531Z,8.00
2022-08-25T09:50:46.771Z,7.60
2022-08-25T09:51:43.521Z,7.20
2022-08-25T09:52:44.283Z,7.60
2022-08-25T09:53:45.302Z,7.70
2022-08-25T09:54:46.898Z,7.50
2022-08-25T09:55:43.485Z,7.70
2022-08-25T09:56:43.473Z,7.70
2022-08-25T09:57:43.470Z,7.70
2022-08-25T09:58:43.450Z,7.80
2022-08-25T09:59:57.215Z,7.70
2022-08-25T10:00:44.437Z,8.10
2022-08-25T10:01:43.459Z,7.80
2022-08-25T10:02:43.442Z,8.10
2022-08-25T10:03:43.428Z,8.00
2022-08-25T10:04:43.458Z,7.60
2022-08-25T10:05:43.394Z,7.70
2022-08-25T10:06:43.413Z,7.90
2022-08-25T10:07:43.397Z,8.10
2022-08-25T10:08:43.376Z,7.50
2022-08-25T10:09:43.392Z,7.90
2022-08-25T10:10:43.349Z,7.50
2022-08-25T10:11:43.624Z,7.90
2022-08-25T10:12:43.376Z,7.90
2022-08-25T10:13:43.355Z,7.70
2022-08-25T10:14:44.598Z,7.60
2022-08-25T10:15:43.342Z,8.10
2022-08-25T10:16:47.000Z,7.70
2022-08-25T10:17:43.324Z,7.80
2022-08-25T10:18:43.284Z,7.80
2022-08-25T10:19:43.286Z,8.20
2022-08-25T10:20:44.571Z,7.40
2022-08-25T10:21:43.595Z,8.10
2022-08-25T10:22:43.266Z,8.10
2022-08-25T10:23:43.293Z,8.00
2022-08-25T10:24:44.120Z,8.00
2022-08-25T10:25:43.241Z,7.60
2022-08-25T10:26:44.217Z,7.60
2022-08-25T10:27:43.238Z,8.10
2022-08-25T10:28:43.218Z,8.40
2022-08-25T10:29:43.202Z,7.90
2022-08-25T10:30:43.257Z,7.90
2022-08-25T10:31:43.184Z,7.50
2022-08-25T10:32:43.186Z,7.80
2022-08-25T10:33:43.183Z,7.90
2022-08-25T10:34:44.362Z,8.00
2022-08-25T10:35:43.152Z,7.80
2022-08-25T10:36:47.055Z,8.20
2022-08-25T10:37:43.187Z,8.40
2022-08-25T10:38:43.339Z,8.40
2022-08-25T10:39:43.113Z,8.50
2022-08-25T10:40:43.142Z,8.00
2022-08-25T10:41:43.146Z,7.80
2022-08-25T10:42:43.090Z,7.90
2022-08-25T10:43:43.190Z,7.60
2022-08-25T10:44:43.131Z,8.40
2022-08-25T10:45:43.074Z,8.00
2022-08-25T10:46:43.207Z,7.80
2022-08-25T10:47:43.076Z,7.90
2022-08-25T10:48:43.050Z,8.20
2022-08-25T10:49:43.057Z,8.10
2022-08-25T10:50:45.429Z,7.80
2022-08-25T10:51:43.083Z,7.80
2022-08-25T10:52:43.071Z,7.50
2022-08-25T10:53:43.045Z,7.90
2022-08-25T10:54:42.990Z,7.30
2022-08-25T10:55:43.003Z,7.60
2022-08-25T10:56:43.134Z,8.10
2022-08-25T10:57:42.987Z,7.80
2022-08-25T10:58:42.961Z,7.90
2022-08-25T10:59:42.979Z,7.50
2022-08-25T11:00:48.149Z,7.30
2022-08-25T11:01:44.641Z,7.50
2022-08-25T11:02:42.955Z,8.00
2022-08-25T11:03:42.993Z,7.60
2022-08-25T11:04:42.948Z,7.30
2022-08-25T11:05:42.917Z,7.50
2022-08-25T11:06:42.893Z,7.50
2022-08-25T11:07:42.892Z,6.90
2022-08-25T11:08:43.023Z,7.00
2022-08-25T11:09:42.871Z,7.20
2022-08-25T11:10:42.937Z,7.20
2022-08-25T11:11:42.847Z,7.00
2022-08-25T11:12:42.847Z,7.00
2022-08-25T11:13:43.168Z,7.40
2022-08-25T11:14:42.830Z,7.20
2022-08-25T11:15:54.813Z,7.10
2022-08-25T11:16:43.849Z,7.50
2022-08-25T11:17:42.834Z,7.20
2022-08-25T11:18:43.337Z,6.90
2022-08-25T11:19:42.795Z,7.30
2022-08-25T11:20:42.792Z,7.50
2022-08-25T11:21:42.773Z,7.70
2022-08-25T11:22:42.769Z,7.70
2022-08-25T11:23:42.778Z,7.20
2022-08-25T11:24:42.773Z,7.80
2022-08-25T11:25:42.787Z,7.50
2022-08-25T11:26:42.794Z,7.20
2022-08-25T11:27:42.755Z,7.20
2022-08-25T11:28:42.724Z,7.30
2022-08-25T11:29:42.719Z,7.20
2022-08-25T11:30:42.732Z,7.50
2022-08-25T11:31:42.701Z,7.00
2022-08-25T11:32:42.705Z,7.10
2022-08-25T11:33:42.674Z,7.40
2022-08-25T11:34:43.842Z,7.80
2022-08-25T11:35:42.741Z,7.50
2022-08-25T11:36:42.712Z,7.40
2022-08-25T11:37:42.657Z,7.80
2022-08-25T11:38:42.654Z,7.60
2022-08-25T11:39:43.649Z,8.20
2022-08-25T11:40:42.631Z,8.50
2022-08-25T11:41:42.607Z,8.20
2022-08-25T11:42:42.606Z,8.30
2022-08-25T11:43:42.709Z,7.60
2022-08-25T11:44:53.580Z,7.70
2022-08-25T11:45:43.621Z,7.30
2022-08-25T11:46:42.614Z,7.70
2022-08-25T11:47:42.627Z,7.40
2022-08-25T11:48:42.544Z,7.70
2022-08-25T11:49:42.563Z,7.60
2022-08-25T11:50:42.536Z,7.60
2022-08-25T11:51:42.539Z,7.50
2022-08-25T11:52:42.518Z,7.80
2022-08-25T11:55:09.323Z,7.20
2022-08-25T11:56:08.241Z,7.60
2022-08-25T11:57:08.224Z,8.50
2022-08-25T11:58:08.582Z,7.80
2022-08-25T11:59:08.212Z,7.90
2022-08-25T12:00:08.266Z,8.20
2022-08-25T12:01:08.208Z,7.70
2022-08-25T12:02:08.197Z,7.30
2022-08-25T12:03:08.197Z,7.40
2022-08-25T12:04:08.238Z,7.90
2022-08-25T12:05:08.323Z,7.80
2022-08-25T12:06:08.251Z,7.90
2022-08-25T12:07:08.154Z,8.10
2022-08-25T12:08:08.150Z,7.20
2022-08-25T12:09:08.171Z,7.30
2022-08-25T12:10:08.156Z,7.80
2022-08-25T12:11:11.180Z,7.40
2022-08-25T12:12:08.161Z,7.50
2022-08-25T12:13:10.510Z,7.60
2022-08-25T12:14:08.135Z,7.80
2022-08-25T12:15:08.256Z,7.60
2022-08-25T12:16:08.158Z,7.40
2022-08-25T12:17:10.137Z,7.70
2022-08-25T12:18:08.575Z,7.50
2022-08-25T12:19:08.069Z,7.60
2022-08-25T12:20:08.057Z,7.60
2022-08-25T12:21:08.062Z,7.30
2022-08-25T12:22:08.059Z,7.30
2022-08-25T12:23:08.057Z,7.60
2022-08-25T12:24:08.056Z,7.40
2022-08-25T12:25:08.020Z,6.80
2022-08-25T12:26:08.005Z,7.30
2022-08-25T12:27:08.005Z,7.60
2022-08-25T12:28:09.411Z,7.10
2022-08-25T12:29:07.980Z,7.50
2022-08-25T12:30:08.014Z,7.10
2022-08-25T12:31:08.030Z,7.40
2022-08-25T12:32:09.374Z,7.30
2022-08-25T12:33:07.950Z,7.50
2022-08-25T12:34:08.013Z,7.00
2022-08-25T12:35:07.947Z,7.40
2022-08-25T12:36:07.970Z,7.60
2022-08-25T12:37:07.983Z,6.70
2022-08-25T12:38:08.216Z,6.70
2022-08-25T12:39:07.914Z,6.80
2022-08-25T12:40:08.013Z,7.20
2022-08-25T12:41:07.897Z,7.80
2022-08-25T12:42:07.959Z,7.00
2022-08-25T12:43:07.880Z,7.20
2022-08-25T12:44:07.890Z,7.10
2022-08-25T12:45:07.886Z,7.20
2022-08-25T12:46:07.910Z,6.80
2022-08-25T12:47:07.881Z,7.30
2022-08-25T12:48:07.841Z,7.20
2022-08-25T12:49:07.832Z,7.50
2022-08-25T12:50:07.830Z,7.00
2022-08-25T12:51:07.827Z,7.00
2022-08-25T12:52:07.885Z,6.90
2022-08-25T12:53:07.827Z,6.90
2022-08-25T12:54:10.472Z,7.00
2022-08-25T12:55:07.785Z,7.00
2022-08-25T12:56:07.781Z,6.70
2022-08-25T12:57:07.827Z,7.20
2022-08-25T12:58:07.769Z,6.90
2022-08-25T12:59:07.814Z,6.90
2022-08-25T13:00:07.785Z,6.60
2022-08-25T13:01:09.396Z,7.00
2022-08-25T13:02:08.881Z,6.50
2022-08-25T13:03:08.266Z,6.90
2022-08-25T13:04:09.401Z,7.30
2022-08-25T13:05:07.706Z,7.10
2022-08-25T13:06:08.171Z,7.00
2022-08-25T13:07:07.681Z,6.80
2022-08-25T13:08:07.719Z,7.00
2022-08-25T13:09:08.704Z,7.00
2022-08-25T13:10:07.663Z,6.90
2022-08-25T13:11:07.698Z,6.60
2022-08-25T13:12:07.674Z,6.50
2022-08-25T13:13:07.639Z,6.50
2022-08-25T13:14:07.630Z,6.50